sensor_id;sensor_type;location;lat;lon;timestamp;P1;durP1;ratioP1;P2;durP2;ratioP2
3993;SDS011;2011;48.238;13.948;2023-05-21T00:00:51;22.07;;;12.77;;
3993;SDS011;2011;48.238;13.948;2023-05-21T00:03:18;20.10;;;12.57;;
3993;SDS011;2011;48.238;13.948;2023-05-21T00:05:45;33.33;;;14.20;;
3993;SDS011;2011;48.238;13.948;2023-05-21T00:08:14;33.80;;;14.63;;
3993;SDS011;2011;48.238;13.948;2023-05-21T00:10:41;20.17;;;14.57;;
3993;SDS011;2011;48.238;13.948;2023-05-21T00:13:08;30.13;;;15.67;;
3993;SDS011;2011;48.238;13.948;2023-05-21T00:15:37;25.07;;;15.80;;
3993;SDS011;2011;48.238;13.948;2023-05-21T00:18:04;30.10;;;14.73;;
3993;SDS011;2011;48.238;13.948;2023-05-21T00:20:31;24.17;;;15.23;;
3993;SDS011;2011;48.238;13.948;2023-05-21T00:22:58;21.43;;;14.00;;
3993;SDS011;2011;48.238;13.948;2023-05-21T00:25:28;31.50;;;15.17;;
3993;SDS011;2011;48.238;13.948;2023-05-21T00:27:55;21.37;;;14.87;;
3993;SDS011;2011;48.238;13.948;2023-05-21T00:30:22;23.73;;;15.77;;
3993;SDS011;2011;48.238;13.948;2023-05-21T00:32:50;24.97;;;16.13;;
3993;SDS011;2011;48.238;13.948;2023-05-21T00:35:17;21.47;;;16.50;;
3993;SDS011;2011;48.238;13.948;2023-05-21T00:37:44;23.87;;;16.00;;
3993;SDS011;2011;48.238;13.948;2023-05-21T00:40:11;24.70;;;15.83;;
3993;SDS011;2011;48.238;13.948;2023-05-21T00:42:39;22.53;;;16.23;;
3993;SDS011;2011;48.238;13.948;2023-05-21T00:45:06;33.23;;;16.80;;
3993;SDS011;2011;48.238;13.948;2023-05-21T00:47:34;26.23;;;15.87;;
3993;SDS011;2011;48.238;13.948;2023-05-21T00:50:03;21.33;;;15.50;;
3993;SDS011;2011;48.238;13.948;2023-05-21T00:52:30;24.03;;;16.20;;
3993;SDS011;2011;48.238;13.948;2023-05-21T00:55:06;24.93;;;16.50;;
3993;SDS011;2011;48.238;13.948;2023-05-21T00:57:34;21.50;;;16.10;;
3993;SDS011;2011;48.238;13.948;2023-05-21T01:00:02;23.53;;;17.13;;
3993;SDS011;2011;48.238;13.948;2023-05-21T01:02:33;21.27;;;16.07;;
3993;SDS011;2011;48.238;13.948;2023-05-21T01:05:02;23.93;;;16.93;;
3993;SDS011;2011;48.238;13.948;2023-05-21T01:07:30;20.20;;;15.10;;
3993;SDS011;2011;48.238;13.948;2023-05-21T01:10:00;23.80;;;15.90;;
3993;SDS011;2011;48.238;13.948;2023-05-21T01:12:28;25.40;;;15.87;;
3993;SDS011;2011;48.238;13.948;2023-05-21T01:14:57;29.50;;;17.60;;
3993;SDS011;2011;48.238;13.948;2023-05-21T01:17:26;24.27;;;17.83;;
3993;SDS011;2011;48.238;13.948;2023-05-21T01:19:54;23.67;;;17.50;;
3993;SDS011;2011;48.238;13.948;2023-05-21T01:22:23;22.43;;;16.07;;
3993;SDS011;2011;48.238;13.948;2023-05-21T01:24:55;28.73;;;18.60;;
3993;SDS011;2011;48.238;13.948;2023-05-21T01:27:22;26.20;;;17.80;;
3993;SDS011;2011;48.238;13.948;2023-05-21T01:29:49;28.13;;;19.87;;
3993;SDS011;2011;48.238;13.948;2023-05-21T01:32:18;28.53;;;19.77;;
3993;SDS011;2011;48.238;13.948;2023-05-21T01:34:52;25.63;;;18.67;;
3993;SDS011;2011;48.238;13.948;2023-05-21T01:37:25;28.27;;;19.43;;
3993;SDS011;2011;48.238;13.948;2023-05-21T01:39:59;30.83;;;20.63;;
3993;SDS011;2011;48.238;13.948;2023-05-21T01:42:30;34.83;;;21.90;;
3993;SDS011;2011;48.238;13.948;2023-05-21T01:45:00;31.50;;;20.07;;
3993;SDS011;2011;48.238;13.948;2023-05-21T01:47:30;30.43;;;20.83;;
3993;SDS011;2011;48.238;13.948;2023-05-21T01:49:58;30.10;;;19.17;;
3993;SDS011;2011;48.238;13.948;2023-05-21T01:52:25;29.13;;;20.97;;
3993;SDS011;2011;48.238;13.948;2023-05-21T01:54:52;31.47;;;20.70;;
3993;SDS011;2011;48.238;13.948;2023-05-21T01:57:22;29.80;;;20.33;;
3993;SDS011;2011;48.238;13.948;2023-05-21T01:59:49;30.27;;;20.53;;
3993;SDS011;2011;48.238;13.948;2023-05-21T02:02:17;31.43;;;19.33;;
3993;SDS011;2011;48.238;13.948;2023-05-21T02:04:44;29.13;;;19.87;;
3993;SDS011;2011;48.238;13.948;2023-05-21T02:07:12;30.03;;;20.80;;
3993;SDS011;2011;48.238;13.948;2023-05-21T02:09:39;29.73;;;18.47;;
3993;SDS011;2011;48.238;13.948;2023-05-21T02:12:07;27.87;;;18.70;;
3993;SDS011;2011;48.238;13.948;2023-05-21T02:14:35;28.93;;;19.13;;
3993;SDS011;2011;48.238;13.948;2023-05-21T02:17:02;26.53;;;19.63;;
3993;SDS011;2011;48.238;13.948;2023-05-21T02:19:29;33.93;;;19.77;;
3993;SDS011;2011;48.238;13.948;2023-05-21T02:21:56;34.73;;;21.47;;
3993;SDS011;2011;48.238;13.948;2023-05-21T02:24:24;31.97;;;20.37;;
3993;SDS011;2011;48.238;13.948;2023-05-21T02:26:51;34.67;;;20.97;;
3993;SDS011;2011;48.238;13.948;2023-05-21T02:29:18;32.90;;;21.03;;
3993;SDS011;2011;48.238;13.948;2023-05-21T02:31:46;32.40;;;20.90;;
3993;SDS011;2011;48.238;13.948;2023-05-21T02:34:14;30.27;;;19.70;;
3993;SDS011;2011;48.238;13.948;2023-05-21T02:36:41;33.67;;;21.00;;
3993;SDS011;2011;48.238;13.948;2023-05-21T02:39:08;38.67;;;20.87;;
3993;SDS011;2011;48.238;13.948;2023-05-21T02:41:36;32.73;;;21.60;;
3993;SDS011;2011;48.238;13.948;2023-05-21T02:44:03;32.00;;;21.47;;
3993;SDS011;2011;48.238;13.948;2023-05-21T02:46:30;30.47;;;20.83;;
3993;SDS011;2011;48.238;13.948;2023-05-21T02:48:58;34.90;;;20.03;;
3993;SDS011;2011;48.238;13.948;2023-05-21T02:51:25;29.67;;;20.53;;
3993;SDS011;2011;48.238;13.948;2023-05-21T02:53:52;31.07;;;20.80;;
3993;SDS011;2011;48.238;13.948;2023-05-21T02:56:19;25.33;;;19.23;;
3993;SDS011;2011;48.238;13.948;2023-05-21T02:58:46;30.70;;;18.97;;
3993;SDS011;2011;48.238;13.948;2023-05-21T03:01:13;30.70;;;21.23;;
3993;SDS011;2011;48.238;13.948;2023-05-21T03:03:41;33.10;;;22.27;;
3993;SDS011;2011;48.238;13.948;2023-05-21T03:06:09;29.43;;;19.90;;
3993;SDS011;2011;48.238;13.948;2023-05-21T03:08:36;31.33;;;20.83;;
3993;SDS011;2011;48.238;13.948;2023-05-21T03:11:03;37.43;;;21.97;;
3993;SDS011;2011;48.238;13.948;2023-05-21T03:13:30;34.40;;;23.37;;
3993;SDS011;2011;48.238;13.948;2023-05-21T03:15:57;33.13;;;21.33;;
3993;SDS011;2011;48.238;13.948;2023-05-21T03:18:24;29.50;;;19.80;;
3993;SDS011;2011;48.238;13.948;2023-05-21T03:20:51;28.57;;;20.17;;
3993;SDS011;2011;48.238;13.948;2023-05-21T03:23:20;32.90;;;20.93;;
3993;SDS011;2011;48.238;13.948;2023-05-21T03:25:47;34.20;;;22.07;;
3993;SDS011;2011;48.238;13.948;2023-05-21T03:28:14;33.27;;;19.80;;
3993;SDS011;2011;48.238;13.948;2023-05-21T03:30:42;34.83;;;22.27;;
3993;SDS011;2011;48.238;13.948;2023-05-21T03:33:11;29.10;;;20.83;;
3993;SDS011;2011;48.238;13.948;2023-05-21T03:35:38;30.80;;;21.17;;
3993;SDS011;2011;48.238;13.948;2023-05-21T03:38:05;35.53;;;22.30;;
3993;SDS011;2011;48.238;13.948;2023-05-21T03:40:33;30.83;;;20.60;;
3993;SDS011;2011;48.238;13.948;2023-05-21T03:43:00;31.33;;;21.27;;
3993;SDS011;2011;48.238;13.948;2023-05-21T03:45:27;29.77;;;19.40;;
3993;SDS011;2011;48.238;13.948;2023-05-21T03:47:54;34.53;;;22.40;;
3993;SDS011;2011;48.238;13.948;2023-05-21T03:50:21;35.37;;;21.70;;
3993;SDS011;2011;48.238;13.948;2023-05-21T03:52:49;32.03;;;22.93;;
3993;SDS011;2011;48.238;13.948;2023-05-21T03:55:16;33.43;;;22.07;;
3993;SDS011;2011;48.238;13.948;2023-05-21T03:57:44;34.40;;;22.50;;
3993;SDS011;2011;48.238;13.948;2023-05-21T04:00:11;32.00;;;22.90;;
3993;SDS011;2011;48.238;13.948;2023-05-21T04:02:39;36.27;;;21.23;;
3993;SDS011;2011;48.238;13.948;2023-05-21T04:05:06;33.33;;;22.60;;
3993;SDS011;2011;48.238;13.948;2023-05-21T04:07:33;32.47;;;22.20;;
3993;SDS011;2011;48.238;13.948;2023-05-21T04:10:02;41.03;;;21.97;;
3993;SDS011;2011;48.238;13.948;2023-05-21T04:12:30;32.37;;;22.17;;
3993;SDS011;2011;48.238;13.948;2023-05-21T04:14:59;37.30;;;21.93;;
3993;SDS011;2011;48.238;13.948;2023-05-21T04:17:27;33.50;;;21.90;;
3993;SDS011;2011;48.238;13.948;2023-05-21T04:19:54;33.00;;;23.63;;
3993;SDS011;2011;48.238;13.948;2023-05-21T04:22:20;34.10;;;22.80;;
3993;SDS011;2011;48.238;13.948;2023-05-21T04:24:50;34.20;;;22.67;;
3993;SDS011;2011;48.238;13.948;2023-05-21T04:27:19;32.70;;;21.53;;
3993;SDS011;2011;48.238;13.948;2023-05-21T04:29:49;35.53;;;22.37;;
3993;SDS011;2011;48.238;13.948;2023-05-21T04:32:21;31.13;;;21.97;;
3993;SDS011;2011;48.238;13.948;2023-05-21T04:34:48;36.43;;;22.80;;
3993;SDS011;2011;48.238;13.948;2023-05-21T04:37:15;35.47;;;22.97;;
3993;SDS011;2011;48.238;13.948;2023-05-21T04:39:42;35.57;;;24.50;;
3993;SDS011;2011;48.238;13.948;2023-05-21T04:42:10;34.10;;;23.63;;
3993;SDS011;2011;48.238;13.948;2023-05-21T04:44:38;34.10;;;22.03;;
3993;SDS011;2011;48.238;13.948;2023-05-21T04:47:05;30.60;;;20.57;;
3993;SDS011;2011;48.238;13.948;2023-05-21T04:49:34;30.03;;;20.57;;
3993;SDS011;2011;48.238;13.948;2023-05-21T04:52:01;38.67;;;21.70;;
3993;SDS011;2011;48.238;13.948;2023-05-21T04:54:28;30.80;;;19.90;;
3993;SDS011;2011;48.238;13.948;2023-05-21T04:56:55;28.63;;;21.70;;
3993;SDS011;2011;48.238;13.948;2023-05-21T04:59:22;33.47;;;20.83;;
3993;SDS011;2011;48.238;13.948;2023-05-21T05:01:49;32.03;;;21.97;;
3993;SDS011;2011;48.238;13.948;2023-05-21T05:04:16;28.70;;;20.90;;
3993;SDS011;2011;48.238;13.948;2023-05-21T05:06:45;35.70;;;20.97;;
3993;SDS011;2011;48.238;13.948;2023-05-21T05:09:12;30.90;;;20.03;;
3993;SDS011;2011;48.238;13.948;2023-05-21T05:11:39;30.93;;;19.93;;
3993;SDS011;2011;48.238;13.948;2023-05-21T05:14:06;33.43;;;21.47;;
3993;SDS011;2011;48.238;13.948;2023-05-21T05:16:33;37.20;;;21.90;;
3993;SDS011;2011;48.238;13.948;2023-05-21T05:19:00;36.90;;;23.23;;
3993;SDS011;2011;48.238;13.948;2023-05-21T05:21:27;31.50;;;21.83;;
3993;SDS011;2011;48.238;13.948;2023-05-21T05:23:56;29.47;;;20.80;;
3993;SDS011;2011;48.238;13.948;2023-05-21T05:26:22;30.57;;;21.17;;
3993;SDS011;2011;48.238;13.948;2023-05-21T05:28:50;34.63;;;21.80;;
3993;SDS011;2011;48.238;13.948;2023-05-21T05:31:17;36.73;;;20.33;;
3993;SDS011;2011;48.238;13.948;2023-05-21T05:33:44;33.33;;;21.67;;
3993;SDS011;2011;48.238;13.948;2023-05-21T05:36:11;29.20;;;19.33;;
3993;SDS011;2011;48.238;13.948;2023-05-21T05:38:38;31.97;;;19.90;;
3993;SDS011;2011;48.238;13.948;2023-05-21T05:41:06;28.93;;;20.50;;
3993;SDS011;2011;48.238;13.948;2023-05-21T05:43:33;30.90;;;20.97;;
3993;SDS011;2011;48.238;13.948;2023-05-21T05:46:00;28.20;;;18.80;;
3993;SDS011;2011;48.238;13.948;2023-05-21T05:48:27;30.00;;;18.17;;
3993;SDS011;2011;48.238;13.948;2023-05-21T05:50:55;25.70;;;19.60;;
3993;SDS011;2011;48.238;13.948;2023-05-21T05:53:22;26.77;;;17.83;;
3993;SDS011;2011;48.238;13.948;2023-05-21T05:55:49;25.20;;;17.87;;
3993;SDS011;2011;48.238;13.948;2023-05-21T05:58:17;28.13;;;18.27;;
3993;SDS011;2011;48.238;13.948;2023-05-21T06:00:44;28.30;;;17.97;;
3993;SDS011;2011;48.238;13.948;2023-05-21T06:03:11;39.43;;;19.40;;
3993;SDS011;2011;48.238;13.948;2023-05-21T06:05:38;22.97;;;16.67;;
3993;SDS011;2011;48.238;13.948;2023-05-21T06:08:05;26.00;;;17.67;;
3993;SDS011;2011;48.238;13.948;2023-05-21T06:10:32;31.97;;;16.70;;
3993;SDS011;2011;48.238;13.948;2023-05-21T06:13:00;23.93;;;17.43;;
3993;SDS011;2011;48.238;13.948;2023-05-21T06:15:29;23.30;;;16.93;;
3993;SDS011;2011;48.238;13.948;2023-05-21T06:17:56;24.73;;;16.93;;
3993;SDS011;2011;48.238;13.948;2023-05-21T06:20:23;26.97;;;17.20;;
3993;SDS011;2011;48.238;13.948;2023-05-21T06:22:50;29.13;;;15.80;;
3993;SDS011;2011;48.238;13.948;2023-05-21T06:25:17;24.67;;;14.97;;
3993;SDS011;2011;48.238;13.948;2023-05-21T06:27:44;23.63;;;15.70;;
3993;SDS011;2011;48.238;13.948;2023-05-21T06:30:11;20.77;;;15.03;;
3993;SDS011;2011;48.238;13.948;2023-05-21T06:32:40;27.43;;;16.87;;
3993;SDS011;2011;48.238;13.948;2023-05-21T06:35:10;26.37;;;15.50;;
3993;SDS011;2011;48.238;13.948;2023-05-21T06:37:37;22.03;;;15.03;;
3993;SDS011;2011;48.238;13.948;2023-05-21T06:40:05;22.17;;;15.03;;
3993;SDS011;2011;48.238;13.948;2023-05-21T06:42:33;25.43;;;16.43;;
3993;SDS011;2011;48.238;13.948;2023-05-21T06:45:00;21.10;;;15.50;;
3993;SDS011;2011;48.238;13.948;2023-05-21T06:47:27;23.00;;;15.00;;
3993;SDS011;2011;48.238;13.948;2023-05-21T06:49:55;28.50;;;15.97;;
3993;SDS011;2011;48.238;13.948;2023-05-21T06:52:24;23.10;;;15.00;;
3993;SDS011;2011;48.238;13.948;2023-05-21T06:54:51;23.13;;;15.07;;
3993;SDS011;2011;48.238;13.948;2023-05-21T06:57:18;28.87;;;15.73;;
3993;SDS011;2011;48.238;13.948;2023-05-21T06:59:46;24.53;;;15.60;;
3993;SDS011;2011;48.238;13.948;2023-05-21T07:02:12;32.77;;;15.93;;
3993;SDS011;2011;48.238;13.948;2023-05-21T07:04:40;21.30;;;15.30;;
3993;SDS011;2011;48.238;13.948;2023-05-21T07:07:08;22.53;;;14.80;;
3993;SDS011;2011;48.238;13.948;2023-05-21T07:09:35;19.00;;;13.57;;
3993;SDS011;2011;48.238;13.948;2023-05-21T07:12:02;22.57;;;14.83;;
3993;SDS011;2011;48.238;13.948;2023-05-21T07:14:29;19.90;;;14.73;;
3993;SDS011;2011;48.238;13.948;2023-05-21T07:16:56;26.70;;;15.03;;
3993;SDS011;2011;48.238;13.948;2023-05-21T07:19:23;22.53;;;14.60;;
3993;SDS011;2011;48.238;13.948;2023-05-21T07:21:50;22.37;;;15.00;;
3993;SDS011;2011;48.238;13.948;2023-05-21T07:24:18;26.00;;;15.63;;
3993;SDS011;2011;48.238;13.948;2023-05-21T07:26:45;20.53;;;13.93;;
3993;SDS011;2011;48.238;13.948;2023-05-21T07:29:12;27.50;;;15.70;;
3993;SDS011;2011;48.238;13.948;2023-05-21T07:31:39;26.23;;;14.90;;
3993;SDS011;2011;48.238;13.948;2023-05-21T07:34:06;18.53;;;14.00;;
3993;SDS011;2011;48.238;13.948;2023-05-21T07:36:33;19.00;;;13.90;;
3993;SDS011;2011;48.238;13.948;2023-05-21T07:39:01;20.03;;;14.03;;
3993;SDS011;2011;48.238;13.948;2023-05-21T07:41:29;20.20;;;13.80;;
3993;SDS011;2011;48.238;13.948;2023-05-21T07:43:56;25.07;;;14.43;;
3993;SDS011;2011;48.238;13.948;2023-05-21T07:46:25;18.50;;;13.93;;
3993;SDS011;2011;48.238;13.948;2023-05-21T07:48:52;22.93;;;14.90;;
3993;SDS011;2011;48.238;13.948;2023-05-21T07:51:19;20.17;;;13.00;;
3993;SDS011;2011;48.238;13.948;2023-05-21T07:53:46;18.80;;;12.40;;
3993;SDS011;2011;48.238;13.948;2023-05-21T07:56:13;18.77;;;13.20;;
3993;SDS011;2011;48.238;13.948;2023-05-21T07:58:42;17.50;;;12.90;;
3993;SDS011;2011;48.238;13.948;2023-05-21T08:01:10;25.10;;;13.17;;
3993;SDS011;2011;48.238;13.948;2023-05-21T08:03:37;26.43;;;11.90;;
3993;SDS011;2011;48.238;13.948;2023-05-21T08:06:04;18.17;;;12.07;;
3993;SDS011;2011;48.238;13.948;2023-05-21T08:08:30;19.90;;;12.53;;
3993;SDS011;2011;48.238;13.948;2023-05-21T08:10:57;15.80;;;11.50;;
3993;SDS011;2011;48.238;13.948;2023-05-21T08:13:24;17.57;;;11.77;;
3993;SDS011;2011;48.238;13.948;2023-05-21T08:15:53;18.77;;;11.90;;
3993;SDS011;2011;48.238;13.948;2023-05-21T08:18:19;18.30;;;12.17;;
3993;SDS011;2011;48.238;13.948;2023-05-21T08:20:47;21.67;;;11.67;;
3993;SDS011;2011;48.238;13.948;2023-05-21T08:23:14;16.60;;;11.47;;
3993;SDS011;2011;48.238;13.948;2023-05-21T08:25:44;14.60;;;10.00;;
3993;SDS011;2011;48.238;13.948;2023-05-21T08:28:11;21.83;;;11.23;;
3993;SDS011;2011;48.238;13.948;2023-05-21T08:30:38;14.23;;;10.90;;
3993;SDS011;2011;48.238;13.948;2023-05-21T08:33:06;16.27;;;10.23;;
3993;SDS011;2011;48.238;13.948;2023-05-21T08:35:33;17.53;;;11.00;;
3993;SDS011;2011;48.238;13.948;2023-05-21T08:38:00;27.83;;;10.30;;
3993;SDS011;2011;48.238;13.948;2023-05-21T08:40:27;16.10;;;10.80;;
3993;SDS011;2011;48.238;13.948;2023-05-21T08:42:55;28.50;;;10.90;;
3993;SDS011;2011;48.238;13.948;2023-05-21T08:45:22;21.30;;;10.97;;
3993;SDS011;2011;48.238;13.948;2023-05-21T08:47:52;18.57;;;10.50;;
3993;SDS011;2011;48.238;13.948;2023-05-21T08:50:23;18.50;;;10.37;;
3993;SDS011;2011;48.238;13.948;2023-05-21T08:52:51;18.20;;;9.83;;
3993;SDS011;2011;48.238;13.948;2023-05-21T08:55:19;18.43;;;9.80;;
3993;SDS011;2011;48.238;13.948;2023-05-21T08:57:47;15.03;;;10.37;;
3993;SDS011;2011;48.238;13.948;2023-05-21T09:00:14;14.70;;;10.50;;
3993;SDS011;2011;48.238;13.948;2023-05-21T09:02:42;14.53;;;9.77;;
3993;SDS011;2011;48.238;13.948;2023-05-21T09:05:10;17.47;;;9.40;;
3993;SDS011;2011;48.238;13.948;2023-05-21T09:07:41;12.73;;;9.20;;
3993;SDS011;2011;48.238;13.948;2023-05-21T09:10:12;13.63;;;9.80;;
3993;SDS011;2011;48.238;13.948;2023-05-21T09:12:39;19.13;;;10.83;;
3993;SDS011;2011;48.238;13.948;2023-05-21T09:15:07;18.90;;;10.73;;
3993;SDS011;2011;48.238;13.948;2023-05-21T09:17:35;13.80;;;9.60;;
3993;SDS011;2011;48.238;13.948;2023-05-21T09:20:09;13.90;;;9.03;;
3993;SDS011;2011;48.238;13.948;2023-05-21T09:22:42;12.60;;;9.60;;
3993;SDS011;2011;48.238;13.948;2023-05-21T09:25:10;17.47;;;9.43;;
3993;SDS011;2011;48.238;13.948;2023-05-21T09:27:37;18.37;;;9.87;;
3993;SDS011;2011;48.238;13.948;2023-05-21T09:30:08;15.93;;;9.57;;
3993;SDS011;2011;48.238;13.948;2023-05-21T09:32:36;16.53;;;8.73;;
3993;SDS011;2011;48.238;13.948;2023-05-21T09:35:06;11.80;;;8.57;;
3993;SDS011;2011;48.238;13.948;2023-05-21T09:37:37;14.33;;;8.73;;
3993;SDS011;2011;48.238;13.948;2023-05-21T09:40:13;12.17;;;8.30;;
3993;SDS011;2011;48.238;13.948;2023-05-21T09:42:49;14.40;;;8.30;;
3993;SDS011;2011;48.238;13.948;2023-05-21T09:45:17;13.30;;;8.03;;
3993;SDS011;2011;48.238;13.948;2023-05-21T09:47:44;20.73;;;8.60;;
3993;SDS011;2011;48.238;13.948;2023-05-21T09:50:13;12.63;;;7.87;;
3993;SDS011;2011;48.238;13.948;2023-05-21T09:52:44;12.60;;;8.67;;
3993;SDS011;2011;48.238;13.948;2023-05-21T09:55:12;14.87;;;8.33;;
3993;SDS011;2011;48.238;13.948;2023-05-21T09:57:41;14.97;;;8.40;;
3993;SDS011;2011;48.238;13.948;2023-05-21T10:00:15;12.83;;;8.33;;
3993;SDS011;2011;48.238;13.948;2023-05-21T10:02:43;14.10;;;7.90;;
3993;SDS011;2011;48.238;13.948;2023-05-21T10:05:12;12.47;;;8.50;;
3993;SDS011;2011;48.238;13.948;2023-05-21T10:07:40;16.17;;;9.80;;
3993;SDS011;2011;48.238;13.948;2023-05-21T10:10:09;14.70;;;9.17;;
3993;SDS011;2011;48.238;13.948;2023-05-21T10:12:40;25.10;;;8.70;;
3993;SDS011;2011;48.238;13.948;2023-05-21T10:15:11;16.27;;;8.30;;
3993;SDS011;2011;48.238;13.948;2023-05-21T10:17:40;14.93;;;8.13;;
3993;SDS011;2011;48.238;13.948;2023-05-21T10:20:09;13.90;;;8.10;;
3993;SDS011;2011;48.238;13.948;2023-05-21T10:22:37;14.30;;;8.63;;
3993;SDS011;2011;48.238;13.948;2023-05-21T10:25:05;17.07;;;7.97;;
3993;SDS011;2011;48.238;13.948;2023-05-21T10:27:35;11.43;;;6.83;;
3993;SDS011;2011;48.238;13.948;2023-05-21T10:30:03;12.73;;;7.00;;
3993;SDS011;2011;48.238;13.948;2023-05-21T10:32:31;10.60;;;6.77;;
3993;SDS011;2011;48.238;13.948;2023-05-21T10:34:59;16.40;;;8.00;;
3993;SDS011;2011;48.238;13.948;2023-05-21T10:37:27;11.93;;;7.30;;
3993;SDS011;2011;48.238;13.948;2023-05-21T10:39:54;12.73;;;8.43;;
3993;SDS011;2011;48.238;13.948;2023-05-21T10:42:25;20.03;;;8.50;;
3993;SDS011;2011;48.238;13.948;2023-05-21T10:45:29;10.00;;;7.00;;
3993;SDS011;2011;48.238;13.948;2023-05-21T10:48:07;14.13;;;8.83;;
3993;SDS011;2011;48.238;13.948;2023-05-21T10:50:57;12.00;;;7.83;;
3993;SDS011;2011;48.238;13.948;2023-05-21T10:53:44;14.17;;;7.90;;
3993;SDS011;2011;48.238;13.948;2023-05-21T10:56:21;8.93;;;6.40;;
3993;SDS011;2011;48.238;13.948;2023-05-21T10:59:00;12.30;;;8.30;;
3993;SDS011;2011;48.238;13.948;2023-05-21T11:01:39;14.00;;;10.33;;
3993;SDS011;2011;48.238;13.948;2023-05-21T11:04:07;25.63;;;12.90;;
3993;SDS011;2011;48.238;13.948;2023-05-21T11:06:36;18.03;;;12.17;;
3993;SDS011;2011;48.238;13.948;2023-05-21T11:09:10;10.53;;;8.17;;
3993;SDS011;2011;48.238;13.948;2023-05-21T11:11:41;19.03;;;11.67;;
3993;SDS011;2011;48.238;13.948;2023-05-21T11:17:34;21.17;;;12.47;;
3993;SDS011;2011;48.238;13.948;2023-05-21T11:20:03;20.37;;;11.60;;
3993;SDS011;2011;48.238;13.948;2023-05-21T11:22:33;13.23;;;9.63;;
3993;SDS011;2011;48.238;13.948;2023-05-21T11:25:01;11.93;;;8.67;;
3993;SDS011;2011;48.238;13.948;2023-05-21T11:27:32;16.00;;;10.20;;
3993;SDS011;2011;48.238;13.948;2023-05-21T11:30:03;16.97;;;7.80;;
3993;SDS011;2011;48.238;13.948;2023-05-21T11:32:35;13.70;;;8.40;;
3993;SDS011;2011;48.238;13.948;2023-05-21T11:35:03;12.57;;;8.00;;
3993;SDS011;2011;48.238;13.948;2023-05-21T11:37:31;18.20;;;7.67;;
3993;SDS011;2011;48.238;13.948;2023-05-21T11:42:50;14.63;;;8.13;;
3993;SDS011;2011;48.238;13.948;2023-05-21T11:45:20;11.43;;;7.50;;
3993;SDS011;2011;48.238;13.948;2023-05-21T11:47:48;20.67;;;7.27;;
3993;SDS011;2011;48.238;13.948;2023-05-21T11:50:17;30.87;;;7.83;;
3993;SDS011;2011;48.238;13.948;2023-05-21T11:52:44;12.97;;;7.30;;
3993;SDS011;2011;48.238;13.948;2023-05-21T11:55:12;11.70;;;7.17;;
3993;SDS011;2011;48.238;13.948;2023-05-21T11:57:40;14.83;;;7.50;;
3993;SDS011;2011;48.238;13.948;2023-05-21T12:00:12;10.17;;;7.23;;
3993;SDS011;2011;48.238;13.948;2023-05-21T12:02:45;11.70;;;6.37;;
3993;SDS011;2011;48.238;13.948;2023-05-21T12:05:13;9.40;;;6.50;;
3993;SDS011;2011;48.238;13.948;2023-05-21T12:07:40;12.47;;;7.37;;
3993;SDS011;2011;48.238;13.948;2023-05-21T12:10:07;10.50;;;6.27;;
3993;SDS011;2011;48.238;13.948;2023-05-21T12:12:35;13.50;;;7.90;;
3993;SDS011;2011;48.238;13.948;2023-05-21T12:15:02;12.70;;;7.40;;
3993;SDS011;2011;48.238;13.948;2023-05-21T12:17:29;14.50;;;7.77;;
3993;SDS011;2011;48.238;13.948;2023-05-21T12:19:58;19.53;;;7.70;;
3993;SDS011;2011;48.238;13.948;2023-05-21T12:22:29;10.40;;;6.90;;
3993;SDS011;2011;48.238;13.948;2023-05-21T12:24:55;10.20;;;7.37;;
3993;SDS011;2011;48.238;13.948;2023-05-21T12:27:25;14.13;;;7.07;;
3993;SDS011;2011;48.238;13.948;2023-05-21T12:29:52;16.07;;;7.63;;
3993;SDS011;2011;48.238;13.948;2023-05-21T12:32:19;11.87;;;7.70;;
3993;SDS011;2011;48.238;13.948;2023-05-21T12:34:47;11.83;;;7.60;;
3993;SDS011;2011;48.238;13.948;2023-05-21T12:37:16;9.83;;;7.17;;
3993;SDS011;2011;48.238;13.948;2023-05-21T12:39:46;11.80;;;7.57;;
3993;SDS011;2011;48.238;13.948;2023-05-21T12:42:15;12.30;;;6.87;;
3993;SDS011;2011;48.238;13.948;2023-05-21T12:44:49;9.60;;;6.67;;
3993;SDS011;2011;48.238;13.948;2023-05-21T12:47:18;13.57;;;7.30;;
3993;SDS011;2011;48.238;13.948;2023-05-21T12:49:49;14.37;;;7.70;;
3993;SDS011;2011;48.238;13.948;2023-05-21T12:52:20;11.93;;;7.20;;
3993;SDS011;2011;48.238;13.948;2023-05-21T12:54:48;15.90;;;7.63;;
3993;SDS011;2011;48.238;13.948;2023-05-21T12:57:16;14.47;;;7.87;;
3993;SDS011;2011;48.238;13.948;2023-05-21T12:59:48;15.40;;;7.40;;
3993;SDS011;2011;48.238;13.948;2023-05-21T13:02:20;11.70;;;7.37;;
3993;SDS011;2011;48.238;13.948;2023-05-21T13:04:52;11.83;;;7.60;;
3993;SDS011;2011;48.238;13.948;2023-05-21T13:07:22;14.63;;;7.47;;
3993;SDS011;2011;48.238;13.948;2023-05-21T13:09:50;10.40;;;6.90;;
3993;SDS011;2011;48.238;13.948;2023-05-21T13:12:17;11.67;;;7.40;;
3993;SDS011;2011;48.238;13.948;2023-05-21T13:14:45;12.60;;;7.47;;
3993;SDS011;2011;48.238;13.948;2023-05-21T13:17:13;15.50;;;7.87;;
3993;SDS011;2011;48.238;13.948;2023-05-21T13:19:40;15.57;;;7.97;;
3993;SDS011;2011;48.238;13.948;2023-05-21T13:22:07;12.70;;;7.10;;
3993;SDS011;2011;48.238;13.948;2023-05-21T13:24:36;13.83;;;8.17;;
3993;SDS011;2011;48.238;13.948;2023-05-21T13:27:04;20.80;;;7.27;;
3993;SDS011;2011;48.238;13.948;2023-05-21T13:29:31;11.27;;;7.10;;
3993;SDS011;2011;48.238;13.948;2023-05-21T13:31:58;12.00;;;6.60;;
3993;SDS011;2011;48.238;13.948;2023-05-21T13:34:25;13.10;;;7.60;;
3993;SDS011;2011;48.238;13.948;2023-05-21T13:36:52;11.07;;;7.30;;
3993;SDS011;2011;48.238;13.948;2023-05-21T13:39:18;13.33;;;8.30;;
3993;SDS011;2011;48.238;13.948;2023-05-21T13:41:52;12.17;;;7.97;;
3993;SDS011;2011;48.238;13.948;2023-05-21T13:44:19;18.70;;;7.67;;
3993;SDS011;2011;48.238;13.948;2023-05-21T13:46:45;13.17;;;8.47;;
3993;SDS011;2011;48.238;13.948;2023-05-21T13:49:12;13.10;;;8.17;;
3993;SDS011;2011;48.238;13.948;2023-05-21T13:51:39;10.60;;;7.97;;
3993;SDS011;2011;48.238;13.948;2023-05-21T13:54:06;12.40;;;7.40;;
3993;SDS011;2011;48.238;13.948;2023-05-21T13:56:33;13.83;;;7.47;;
3993;SDS011;2011;48.238;13.948;2023-05-21T13:59:02;11.90;;;6.97;;
3993;SDS011;2011;48.238;13.948;2023-05-21T14:01:29;12.63;;;7.50;;
3993;SDS011;2011;48.238;13.948;2023-05-21T14:03:56;9.10;;;6.43;;
3993;SDS011;2011;48.238;13.948;2023-05-21T14:06:28;12.40;;;7.03;;
3993;SDS011;2011;48.238;13.948;2023-05-21T14:08:55;11.20;;;7.00;;
3993;SDS011;2011;48.238;13.948;2023-05-21T14:11:22;13.10;;;7.53;;
3993;SDS011;2011;48.238;13.948;2023-05-21T14:13:49;11.00;;;6.77;;
3993;SDS011;2011;48.238;13.948;2023-05-21T14:16:18;14.00;;;7.00;;
3993;SDS011;2011;48.238;13.948;2023-05-21T14:18:47;11.07;;;6.83;;
3993;SDS011;2011;48.238;13.948;2023-05-21T14:21:14;13.10;;;6.87;;
3993;SDS011;2011;48.238;13.948;2023-05-21T14:23:41;10.87;;;7.37;;
3993;SDS011;2011;48.238;13.948;2023-05-21T14:26:08;10.10;;;7.30;;
3993;SDS011;2011;48.238;13.948;2023-05-21T14:28:35;16.03;;;7.00;;
3993;SDS011;2011;48.238;13.948;2023-05-21T14:31:02;13.30;;;7.27;;
3993;SDS011;2011;48.238;13.948;2023-05-21T14:33:30;13.90;;;7.00;;
3993;SDS011;2011;48.238;13.948;2023-05-21T14:35:58;12.13;;;7.10;;
3993;SDS011;2011;48.238;13.948;2023-05-21T14:38:25;10.20;;;7.10;;
3993;SDS011;2011;48.238;13.948;2023-05-21T14:40:53;13.10;;;6.73;;
3993;SDS011;2011;48.238;13.948;2023-05-21T14:43:20;15.63;;;6.73;;
3993;SDS011;2011;48.238;13.948;2023-05-21T14:45:47;14.60;;;6.97;;
3993;SDS011;2011;48.238;13.948;2023-05-21T14:48:15;10.40;;;6.20;;
3993;SDS011;2011;48.238;13.948;2023-05-21T14:50:48;13.03;;;6.70;;
3993;SDS011;2011;48.238;13.948;2023-05-21T14:53:15;11.07;;;6.10;;